Nearby METAR Reports

 

KEDC - Austin Exec, Texas, USA
Distance from station: SW 16mi, 25km
Updated: Wed, 26-Feb-2020 5:15pm CST
Clear
Clear
 Wind from N
Wind: N 17 mph , 28 km/h, Gust: 22 mph , 35 km/h
Temperature: 50°F , 10°C
Wind Chill: 44°F , 7°C
Dew Point: 19°F , -7°C
Humidity: 30%
Barometer: 30.39 inHg , 1029.1 hPa
Clouds: Clear
Visibility: 10 miles , 16 km
2020/02/26 23:15 KEDC 262315Z AUTO 36015G19KT 10SM CLR 10/M07 A3039 RMK AO2
KGTU - Georgetown, Texas, USA
Distance from station: WNW 17mi, 28km
Updated: Wed, 26-Feb-2020 4:56pm CST
Clear
Clear
 Wind from N
Wind: N 17 mph , 28 km/h, Gust: 23 mph , 37 km/h
Temperature: 52°F , 11°C
Dew Point: 21°F , -6°C
Humidity: 30%
Barometer: 30.40 inHg , 1029.5 hPa
Clouds: Clear
Visibility: 10 miles , 16 km
2020/02/26 22:56 KGTU 262256Z 35015G20KT 10SM CLR 11/M06 A3040 RMK AO2 SLPNO T01061056
 
KATT - Austin/Mabry, Texas, USA
Distance from station: SW 28mi, 45km
Updated: Wed, 26-Feb-2020 4:51pm CST
Clear
Clear
 Wind from NNW
Wind: NNW 10 mph , 17 km/h, Gust: 24 mph , 39 km/h
Temperature: 54°F , 12°C
Dew Point: 18°F , -8°C
Humidity: 24%
Barometer: 30.39 inHg , 1029.1 hPa
Clouds: Clear
Visibility: 10 miles , 16 km
2020/02/26 22:51 KATT 262251Z AUTO 34009G21KT 290V360 10SM CLR 12/M08 A3039 RMK AO2 PK WND 35026/2203 SLP296 T01171083
KAUS - Austin, Texas, USA
Distance from station: SSW 32mi, 51km
Updated: Wed, 26-Feb-2020 4:53pm CST
Clear
Clear
 Wind from NNW
Wind: NNW 15 mph , 24 km/h, Gust: 26 mph , 43 km/h
Temperature: 54°F , 12°C
Dew Point: 21°F , -6°C
Humidity: 28%
Barometer: 30.38 inHg , 1028.8 hPa
Clouds: Clear
Visibility: 10 miles , 16 km
2020/02/26 22:53 KAUS 262253Z 34013G23KT 10SM CLR 12/M06 A3038 RMK AO2 PK WND 35028/2155 SLP290 T01171056 $
 
KRYW - Lago Vista, Texas, USA
Distance from station: W 33mi, 54km
Updated: Wed, 26-Feb-2020 4:55pm CST
Clear
Clear
 Wind from NNW
Wind: NNW 9 mph , 15 km/h, Gust: 20 mph , 31 km/h
Temperature: 48°F , 9°C
Wind Chill: 44°F , 7°C
Dew Point: 21°F , -6°C
Humidity: 34%
Barometer: 30.38 inHg , 1028.8 hPa
Clouds: Clear
Visibility: 10 miles , 16 km
2020/02/26 22:55 KRYW 262255Z AUTO 34008G17KT 310V010 10SM CLR 09/M06 A3038 RMK AO2 T00921065
KILE - Killeen Muni, Texas, USA
Distance from station: NNW 37mi, 59km
Updated: Wed, 26-Feb-2020 4:56pm CST
Clear
Clear
 Wind from NNW
Wind: NNW 15 mph , 24 km/h, Gust: 24 mph , 39 km/h
Temperature: 50°F , 10°C
Wind Chill: 45°F , 7°C
Dew Point: 18°F , -8°C
Humidity: 28%
Barometer: 30.39 inHg , 1029.1 hPa
Clouds: Clear
Visibility: 10 miles , 16 km
2020/02/26 22:56 KILE 262256Z AUTO 34013G21KT 10SM CLR 10/M08 A3039 RMK AO2 SLP290 T01001078
 
KTPL - Temple/Miller, Texas, USA
Distance from station: N 38mi, 61km
Updated: Wed, 26-Feb-2020 4:51pm CST
Clear
Clear
 Wind from NNW
Wind: NNW 17 mph , 28 km/h, Gust: 26 mph , 43 km/h
Temperature: 50°F , 10°C
Wind Chill: 44°F , 7°C
Dew Point: 21°F , -6°C
Humidity: 32%
Barometer: 30.39 inHg , 1029.1 hPa
Clouds: Clear
Visibility: 10 miles , 16 km
2020/02/26 22:51 KTPL 262251Z AUTO 33015G23KT 10SM CLR 10/M06 A3039 RMK AO2 SLP290 T01001061
KGYB - Giddings-Lee, Texas, USA
Distance from station: SE 39mi, 62km
Updated: Wed, 26-Feb-2020 4:55pm CST
Clear
Clear
 Wind from N
Wind: N 12 mph , 19 km/h, Gust: 21 mph , 33 km/h
Temperature: 55°F , 13°C
Dew Point: 23°F , -5°C
Humidity: 28%
Barometer: 30.38 inHg , 1028.8 hPa
Clouds: Clear
Visibility: 10 miles , 16 km
2020/02/26 22:55 KGYB 262255Z AUTO 36010G18KT 10SM CLR 13/M05 A3038 RMK AO2 T01251046
 
KGRK - Gray/Ft Hood, Texas, USA
Distance from station: NW 42mi, 67km
Updated: Wed, 26-Feb-2020 4:58pm CST
Clear
Clear
 Wind from N
Wind: N 21 mph , 33 km/h, Gust: 25 mph , 41 km/h
Temperature: 50°F , 10°C
Wind Chill: 43°F , 6°C
Dew Point: 19°F , -7°C
Humidity: 30%
Barometer: 30.37 inHg , 1028.4 hPa
Clouds: Clear
Visibility: 10 miles , 16 km
2020/02/26 22:58 KGRK 262258Z AUTO 36018G22KT 10SM CLR 10/M07 A3037 RMK AO2 SLP288 T00951075
KHLR - Ft Hood/Killeen, Texas, USA
Distance from station: NNW 42mi, 67km
Updated: Wed, 26-Feb-2020 4:58pm CST
Clear
Clear
 Wind from NNW
Wind: NNW 21 mph , 33 km/h
Temperature: 50°F , 10°C
Wind Chill: 43°F , 6°C
Dew Point: 18°F , -8°C
Humidity: 28%
Barometer: 30.38 inHg , 1028.8 hPa
Clouds: Clear
Visibility: 10 miles , 16 km
2020/02/26 22:58 KHLR 262258Z AUTO 33018KT 10SM CLR 10/M08 A3038 RMK AO2 SLP290 T01001079
 
KRWV - Caldwell, Texas, USA
Distance from station: E 43mi, 69km
Updated: Wed, 26-Feb-2020 4:50pm CST
Clear
Clear
 Wind from NNW
Wind: NNW 20 mph , 31 km/h, Gust: 28 mph , 44 km/h
Temperature: 50°F , 10°C
Wind Chill: 44°F , 7°C
Dew Point: 23°F , -5°C
Humidity: 35%
Barometer: 30.38 inHg , 1028.8 hPa
Clouds: Clear
Visibility: 10 miles , 16 km
2020/02/26 22:50 KRWV 262250Z AUTO 33017G24KT 10SM CLR 10/M05 A3038 RMK AO2 T01021046
KBMQ - Burnet, Texas, USA
Distance from station: WNW 50mi, 80km
Updated: Wed, 26-Feb-2020 4:53pm CST
Clear
Clear
 Wind from NNW
Wind: NNW 15 mph , 24 km/h, Gust: 26 mph , 43 km/h
Temperature: 50°F , 10°C
Wind Chill: 45°F , 7°C
Dew Point: 18°F , -8°C
Humidity: 28%
Barometer: 30.40 inHg , 1029.5 hPa
Clouds: Clear
Visibility: 10 miles , 16 km
2020/02/26 22:53 KBMQ 262253Z AUTO 34013G23KT 10SM CLR 10/M08 A3040 RMK AO2 PK WND 35026/2214 SLP296 T01001083